FR-0078 weather

Hôpital Jean Minjoz Heliport
Besancon, Franche-Comté, France

Public forecast

Using degrees Celsius for public forecast. Weather courtesy of forecast.io.

METAR (pilot weather report)

Closest report is Dole-Tavaux Airport, 24.2 nm (44.9 km) WSW. Retrieved 2019/07/21 08:30 UTC (0 seconds ago):

LFGJ 210830Z AUTO 07003KT 010V130 9999 FEW023 25/19 Q1022 TEMPO 4000 -SHRA SCT020TCU

TAF (pilot weather forecast)

Forecast is more than 12 hours old.

Closest forecast is Dijon-Bourgogne Airport, 35.7 nm (66.2 km) W. Retrieved 2015/06/01 00:11 UTC (4 years ago):

TAF LFSD 010600Z 0100/0124 CNL